createdAt,value
2023-03-23T15:59:49.468Z,7.95
2023-03-23T16:03:06.150Z,14.68
2023-03-23T16:06:23.418Z,13.05
2023-03-23T16:09:29.196Z,5.72
2023-03-23T16:12:33.806Z,6.85
2023-03-23T16:15:38.240Z,10.20
2023-03-23T16:18:42.839Z,8.80
2023-03-23T16:21:46.792Z,8.18
2023-03-23T16:24:51.139Z,8.98
2023-03-23T16:27:55.294Z,7.70
2023-03-23T16:30:59.342Z,7.28
2023-03-23T16:34:03.595Z,6.15
2023-03-23T16:37:08.108Z,6.60
2023-03-23T16:40:14.030Z,7.35
2023-03-23T16:43:19.010Z,7.05
2023-03-23T16:46:22.955Z,6.72
2023-03-23T16:49:27.181Z,12.68
2023-03-23T16:52:31.602Z,9.43
2023-03-23T16:55:37.764Z,7.90
2023-03-23T16:58:43.243Z,4.88
2023-03-23T17:01:47.576Z,3.88
2023-03-23T17:04:52.120Z,3.70
2023-03-23T17:07:57.400Z,4.45
2023-03-23T17:11:02.099Z,4.47
2023-03-23T17:14:06.557Z,4.50
2023-03-23T17:17:11.328Z,5.00
2023-03-23T17:20:15.757Z,5.05
2023-03-23T17:23:20.100Z,5.50
2023-03-23T17:26:24.492Z,4.95
2023-03-23T17:29:29.180Z,6.05
2023-03-23T17:32:37.599Z,10.85
2023-03-23T17:35:44.305Z,7.05
2023-03-23T17:38:48.872Z,8.20
2023-03-23T17:41:53.494Z,8.57
2023-03-23T17:44:57.900Z,8.13
2023-03-23T17:48:02.510Z,4.72
2023-03-23T17:51:08.089Z,5.57
2023-03-23T17:54:12.478Z,6.15
2023-03-23T17:57:17.013Z,4.60
2023-03-23T18:00:21.845Z,3.35
2023-03-23T18:03:27.211Z,3.45
2023-03-23T18:06:33.527Z,3.17
2023-03-23T18:09:37.974Z,2.83
2023-03-23T18:12:43.042Z,2.80
2023-03-23T18:15:47.894Z,3.07
2023-03-23T18:18:52.603Z,4.75
2023-03-23T18:21:57.100Z,3.28
2023-03-23T18:25:03.535Z,3.00
2023-03-23T18:28:19.276Z,3.72
2023-03-23T18:31:24.274Z,9.18
2023-03-23T18:34:28.604Z,9.48
2023-03-23T18:37:33.609Z,3.65
2023-03-23T18:40:42.984Z,6.90
2023-03-23T18:43:48.086Z,4.97
2023-03-23T18:46:52.996Z,4.70
2023-03-23T18:49:57.465Z,3.67
2023-03-23T18:53:01.965Z,3.92
2023-03-23T18:56:16.562Z,3.53
2023-03-23T18:59:20.737Z,19.77
2023-03-23T19:02:24.896Z,8.10
2023-03-23T19:05:29.353Z,6.15
2023-03-23T19:08:35.685Z,3.72
2023-03-23T19:11:40.256Z,4.72
2023-03-23T19:14:44.640Z,3.50
2023-03-23T19:17:48.910Z,3.90
2023-03-23T19:21:13.512Z,3.40
2023-03-23T19:24:19.402Z,3.03
2023-03-23T19:27:23.313Z,3.38
2023-03-23T19:30:28.170Z,3.20
2023-03-23T19:33:32.553Z,4.60
2023-03-23T19:36:37.532Z,4.00
2023-03-23T19:39:42.955Z,4.63
2023-03-23T19:42:48.008Z,5.88
2023-03-23T19:45:52.339Z,4.32
2023-03-23T19:48:57.306Z,4.78
2023-03-23T19:52:09.099Z,6.18
2023-03-23T19:55:16.332Z,3.72
2023-03-23T19:58:21.695Z,3.22
2023-03-23T20:01:26.190Z,3.97
2023-03-23T20:04:30.780Z,3.00
2023-03-23T20:07:35.067Z,3.30
2023-03-23T20:10:41.617Z,5.03
2023-03-23T20:13:47.675Z,3.40
2023-03-23T20:16:52.956Z,4.68
2023-03-23T20:19:57.730Z,5.30
2023-03-23T20:23:02.635Z,6.32
2023-03-23T20:26:34.943Z,7.63
2023-03-23T20:29:39.523Z,7.55
2023-03-23T20:32:47.164Z,6.07
2023-03-23T20:35:51.453Z,5.70
2023-03-23T20:38:56.042Z,3.80
2023-03-23T20:42:03.968Z,4.18
2023-03-23T20:45:09.352Z,3.60
2023-03-23T20:48:14.604Z,3.83
2023-03-23T20:51:19.124Z,5.70
2023-03-23T20:54:23.764Z,6.43
2023-03-23T20:57:29.581Z,7.10
2023-03-23T21:00:33.930Z,7.45
2023-03-23T21:03:43.031Z,10.77
2023-03-23T21:06:49.790Z,13.25
2023-03-23T21:09:54.366Z,17.25
2023-03-23T21:12:58.683Z,25.65
2023-03-23T21:16:05.181Z,15.38
2023-03-23T21:19:09.718Z,8.93
2023-03-23T21:22:16.236Z,10.43
2023-03-23T21:25:33.951Z,11.32
2023-03-23T21:28:40.147Z,9.68
2023-03-23T21:31:45.400Z,8.33
2023-03-23T21:34:49.919Z,6.85
2023-03-23T21:37:54.513Z,6.32
2023-03-23T21:41:06.797Z,11.85
2023-03-23T21:44:11.596Z,11.05
2023-03-23T21:47:17.053Z,11.15
2023-03-23T21:50:22.840Z,8.82
2023-03-23T21:56:32.517Z,13.00
2023-03-23T21:59:37.005Z,12.18
2023-03-23T22:02:41.656Z,10.25
2023-03-23T22:05:47.317Z,8.55
2023-03-23T22:08:51.654Z,10.98
2023-03-23T22:11:56.561Z,15.95
2023-03-23T22:15:01.220Z,10.27
2023-03-23T22:18:07.770Z,8.30
2023-03-23T22:21:14.146Z,7.60
2023-03-23T22:24:19.615Z,6.63
2023-03-23T22:27:24.277Z,7.75
2023-03-23T22:30:31.243Z,8.48
2023-03-23T22:33:37.701Z,8.50
2023-03-23T22:36:42.409Z,5.95
2023-03-23T22:43:04.166Z,6.10
2023-03-23T22:46:08.698Z,4.97
2023-03-23T22:49:13.741Z,6.75
2023-03-23T22:52:17.840Z,6.18
2023-03-23T22:55:22.641Z,6.72
2023-03-23T22:58:28.285Z,5.33
2023-03-23T23:01:32.697Z,7.32
2023-03-23T23:04:37.653Z,4.32
2023-03-23T23:07:42.414Z,4.37
2023-03-23T23:10:49.257Z,5.97
2023-03-23T23:13:54.576Z,6.93
2023-03-23T23:16:59.097Z,7.75
2023-03-23T23:20:06.427Z,8.27
2023-03-23T23:23:11.063Z,5.65
2023-03-23T23:26:17.344Z,5.13
2023-03-23T23:29:22.312Z,5.53
2023-03-23T23:32:26.608Z,6.40
2023-03-23T23:35:31.237Z,7.65
2023-03-23T23:38:35.628Z,8.93
2023-03-23T23:41:40.178Z,5.57
2023-03-23T23:44:46.207Z,5.35
2023-03-23T23:47:51.221Z,5.10
2023-03-23T23:50:55.350Z,6.07
2023-03-23T23:54:02.363Z,4.57
2023-03-23T23:57:07.431Z,4.90
